Airfield :
LOGIN :

Register | Disclaimer

   EN    FR    IT 

 










Legend :    VFR   Marginal VFR   IFR   Intensive IFR   Very Intensive IFR
Visi :
Ceiling :
>= 8 km
>= 3000ft
5 to 8 km
1000 to 3000 ft
1500m to 5 km
500 to 1000 ft
800 to 1500m
200 to 500 ft
< 800m
< 200 ft
Symbols :   Thunderstorms  Fog  Heavy snow  Heavy precipitations  Wind > 20 kt
SIGMETs :     Misc.  Thunderstorms  Icing  Turbulence  Mountain Waves  Volcanic Ashes






- Airport Elevation : 622 ft
- IATA code : BRS


EGGD - Bristol Int.

CURRENT METAR :
  • 070850Z 20010KT 180V260 9999 SCT011 13/11 Q1020

EXPIRED METARs :
  • 070820Z AUTO 20009KT 180V250 9999 BKN011 13/11 Q1020
  • 070750Z 21010KT 180V250 9999 SCT012 13/11 Q1020
  • 070720Z AUTO 20009KT 180V260 9999 BKN013 12/11 Q1020
  • 070650Z AUTO 19009KT 170V240 9999 FEW011 SCT019 BKN029 12/10 Q1020
  • 070620Z AUTO 19008KT 170V230 9999 SCT009 BKN028 12/10 Q1020
  • 070550Z AUTO 19007KT 160V250 9999 SCT009 BKN014 BKN024 12/10 Q1021

TAF TAF EGGD
Valid from the 07 at 06:00 until the 08 at 06:00 UTC


070454Z 0706/0806 22011KT 9999 SCT032
PROB30
TEMPO 0706/0708 BKN007
TEMPO 0709/0716 23016G26KT
PROB40
TEMPO 0710/0713 7000 SHRA
TEMPO 0713/0716 6000 SHRA
PROB40
TEMPO 0713/0716 24022G36KT 3000 +SHRA BKN014
BECMG 0716/0719 28010KT
ATIS : +44 1275 473 666



MET'MAP, your aeronautical weather chart ! - Copyright ORBIFLY December 2007 - Disclaimer

ORBIFLY MET'MAP TEAM :

Programming & Development : Alexandra Zaïnal
Original concept : Baudouin d'Aumeries
Technical & hardware support : Manuel Goepfert
Assistance : Marc-Olivier Méhu




SOURCES & CREDITS :

   NOAA